Time;durP1;ratioP1;P1;durP2;ratioP2;P2;SDS_P1;SDS_P2;PMS_P1;PMS_P2;Temp;Humidity;BMP_temperature;BMP_pressure;BME280_temperature;BME280_humidity;BME280_pressure;Samples;Min_cycle;Max_cycle;Signal;HPM_P1;HPM_P2
2022/03/29 00:01:14;;;;;;;3.25;1.00;;;;;;;4.77;60.47;101997.33;1856931;77;21108;-59
2022/03/29 00:03:42;;;;;;;1.45;0.80;;;;;;;4.75;60.69;102011.66;1857622;77;21058;-58
2022/03/29 00:06:11;;;;;;;3.72;0.80;;;;;;;4.74;60.78;101989.47;1857267;77;21713;-60
2022/03/29 00:08:40;;;;;;;7.53;1.10;;;;;;;4.73;60.69;101985.14;1853430;77;21089;-61
2022/03/29 00:11:08;;;;;;;5.53;1.20;;;;;;;4.73;60.87;101969.48;1853834;77;21441;-61
2022/03/29 00:13:37;;;;;;;3.20;1.42;;;;;;;4.74;60.92;101979.03;1855289;77;21117;-60
2022/03/29 00:16:06;;;;;;;2.40;0.90;;;;;;;4.73;61.17;101989.05;1856716;77;21034;-62
2022/03/29 00:18:34;;;;;;;5.28;1.07;;;;;;;4.71;61.16;101982.95;1855437;77;21579;-60
2022/03/29 00:21:03;;;;;;;8.38;1.17;;;;;;;4.72;61.31;101983.38;1855991;77;21137;-60
2022/03/29 00:23:32;;;;;;;3.17;1.07;;;;;;;4.71;61.19;101992.95;1856512;76;22051;-59
2022/03/29 00:26:01;;;;;;;3.45;1.20;;;;;;;4.71;61.15;101976.44;1859577;76;21486;-61
2022/03/29 00:28:29;;;;;;;7.22;1.57;;;;;;;4.68;61.23;101981.63;1855756;77;21058;-61
2022/03/29 00:30:58;;;;;;;2.77;1.12;;;;;;;4.67;61.32;101985.08;1860695;76;21105;-59
2022/03/29 00:33:27;;;;;;;1.50;0.98;;;;;;;4.66;61.47;101932.04;1858876;76;21157;-61
2022/03/29 00:35:55;;;;;;;3.55;1.15;;;;;;;4.69;61.41;101970.34;1856776;77;21061;-56
2022/03/29 00:38:24;;;;;;;4.53;0.90;;;;;;;4.67;61.32;101971.63;1855475;77;21253;-59
2022/03/29 00:40:53;;;;;;;4.70;1.32;;;;;;;4.67;61.22;101970.73;1853215;77;21653;-59
2022/03/29 00:43:23;;;;;;;2.55;0.93;;;;;;;4.64;61.02;101978.13;1856198;77;21823;-59
2022/03/29 00:45:52;;;;;;;2.77;1.20;;;;;;;4.62;60.91;101993.77;1848422;77;21486;-59
2022/03/29 00:48:22;;;;;;;0.93;0.70;;;;;;;4.63;60.80;101968.13;1856834;77;21042;-59
2022/03/29 00:50:52;;;;;;;3.67;0.82;;;;;;;4.65;60.62;101973.36;1856628;77;21042;-59
2022/03/29 00:53:26;;;;;;;6.58;1.00;;;;;;;4.60;60.41;101965.49;1861019;76;21520;-59
2022/03/29 00:55:54;;;;;;;8.38;0.82;;;;;;;4.59;60.36;101965.48;1842444;77;21136;-57
2022/03/29 00:58:23;;;;;;;2.17;0.95;;;;;;;4.58;60.15;101975.05;1854286;77;21151;-59
2022/03/29 01:00:53;;;;;;;1.70;0.57;;;;;;;4.56;60.19;101977.22;1857394;77;21638;-60
2022/03/29 01:13:12;;;;;;;6.37;1.05;;;;;;;4.53;60.11;101992.41;1824419;78;21161;-60
2022/03/29 01:15:42;;;;;;;2.33;0.98;;;;;;;4.55;60.35;101985.90;1824398;79;21103;-58
2022/03/29 01:18:13;;;;;;;7.40;0.80;;;;;;;4.54;60.13;101988.95;1826177;78;21022;-56
2022/03/29 01:20:44;;;;;;;10.10;1.35;;;;;;;4.54;60.43;101995.91;1826153;78;21240;-57
2022/03/29 01:23:14;;;;;;;7.20;1.00;;;;;;;4.54;60.27;101992.00;1824528;79;21107;-56
2022/03/29 01:25:44;;;;;;;9.90;1.22;;;;;;;4.52;60.08;101999.81;1824697;79;21107;-57
2022/03/29 01:28:16;;;;;;;4.22;0.98;;;;;;;4.52;60.19;101994.59;1824473;79;21102;-58
2022/03/29 01:30:45;;;;;;;3.20;0.88;;;;;;;4.50;60.05;101991.52;1824757;79;21453;-57
2022/03/29 01:33:15;;;;;;;8.15;1.00;;;;;;;4.47;60.13;101998.90;1824645;78;21494;-57
2022/03/29 01:35:45;;;;;;;4.47;0.93;;;;;;;4.45;60.31;102000.63;1846802;77;21532;-57
2022/03/29 01:38:13;;;;;;;2.17;0.78;;;;;;;4.45;60.53;101989.76;1855156;77;21048;-57
2022/03/29 01:40:42;;;;;;;16.67;1.85;;;;;;;4.47;60.40;101991.52;1854944;77;21064;-57
2022/03/29 01:43:11;;;;;;;6.22;1.30;;;;;;;4.47;60.42;101993.69;1854984;77;21131;-56
2022/03/29 01:45:40;;;;;;;6.53;1.20;;;;;;;4.48;60.60;101991.50;1842579;77;21522;-57
2022/03/29 01:48:09;;;;;;;1.47;0.65;;;;;;;4.50;60.50;101984.99;1826865;78;21066;-57
2022/03/29 01:50:38;;;;;;;5.72;1.05;;;;;;;4.51;60.92;102003.70;1826909;78;21081;-57
2022/03/29 01:53:06;;;;;;;3.42;0.90;;;;;;;4.54;60.75;101975.91;1827008;78;21147;-57
2022/03/29 01:55:36;;;;;;;2.52;0.85;;;;;;;4.53;60.71;101980.66;1827092;78;21532;-57
2022/03/29 01:58:04;;;;;;;5.30;0.78;;;;;;;4.57;60.53;101977.20;1826970;78;21069;-58
2022/03/29 02:00:34;;;;;;;3.17;1.02;;;;;;;4.58;60.43;101973.75;1826897;78;21113;-57
2022/03/29 02:03:06;;;;;;;10.75;1.15;;;;;;;4.55;60.42;101963.28;1826831;78;21464;-57
2022/03/29 02:05:35;;;;;;;6.08;1.20;;;;;;;4.55;60.29;101968.50;1826827;78;21449;-57
2022/03/29 02:08:04;;;;;;;4.35;0.80;;;;;;;4.54;60.27;101959.39;1826820;78;21524;-56
2022/03/29 02:10:33;;;;;;;9.45;2.08;;;;;;;4.55;60.20;101960.67;1827003;78;21337;-57
2022/03/29 02:13:02;;;;;;;2.47;0.80;;;;;;;4.55;60.05;101898.07;1826980;78;21049;-57
2022/03/29 02:15:30;;;;;;;2.65;1.00;;;;;;;4.62;59.83;101953.77;1826847;78;21042;-56
2022/03/29 02:17:59;;;;;;;4.65;1.00;;;;;;;4.64;59.68;101955.95;1826841;78;21077;-57
2022/03/29 02:20:28;;;;;;;5.05;1.02;;;;;;;4.62;59.66;101953.77;1826781;78;21879;-56
2022/03/29 02:23:02;;;;;;;1.57;0.80;;;;;;;4.63;59.58;101956.83;1850645;77;21525;-55
2022/03/29 02:25:31;;;;;;;9.33;1.12;;;;;;;4.63;59.55;101952.48;1857509;77;21062;-56
2022/03/29 02:28:00;;;;;;;3.10;1.50;;;;;;;4.62;59.59;101957.23;1857520;77;21053;-56
2022/03/29 02:30:31;;;;;;;7.85;1.30;;;;;;;4.63;59.72;101955.52;1857477;77;21065;-55
2022/03/29 02:33:01;;;;;;;2.33;0.93;;;;;;;4.63;59.79;101951.17;1857273;77;21137;-56
2022/03/29 02:35:30;;;;;;;5.15;1.07;;;;;;;4.62;59.96;101949.41;1833843;77;21041;-54
2022/03/29 02:37:59;;;;;;;9.08;1.12;;;;;;;4.63;60.07;101934.22;1820503;79;21049;-56
2022/03/29 02:40:28;;;;;;;6.42;0.98;;;;;;;4.65;60.28;101951.19;1820496;79;21492;-56
2022/03/29 02:42:57;;;;;;;5.00;1.35;;;;;;;4.67;60.24;101937.71;1820451;79;21147;-56
2022/03/29 02:45:27;;;;;;;1.52;0.75;;;;;;;4.63;60.40;101942.48;1839927;76;21068;-58
2022/03/29 02:47:58;;;;;;;5.33;1.40;;;;;;;4.63;60.64;101952.48;1857535;77;21120;-57
2022/03/29 02:50:27;;;;;;;7.55;1.10;;;;;;;4.64;60.86;101932.03;1857453;77;21131;-57
2022/03/29 02:52:59;;;;;;;11.05;1.25;;;;;;;4.67;60.90;101931.59;1857420;77;21509;-57
2022/03/29 02:55:31;;;;;;;5.05;1.00;;;;;;;4.70;61.10;101931.63;1856966;77;21132;-56
2022/03/29 02:58:00;;;;;;;1.98;1.12;;;;;;;4.68;61.04;101926.83;1857422;77;21050;-58
2022/03/29 03:00:29;;;;;;;4.50;1.30;;;;;;;4.69;61.07;101920.32;1857580;77;21529;-56
2022/03/29 03:02:59;;;;;;;4.55;1.37;;;;;;;4.68;61.11;101926.83;1857508;77;21504;-57
2022/03/29 03:05:28;;;;;;;4.30;1.10;;;;;;;4.70;61.36;101900.31;1857583;77;21576;-58
2022/03/29 03:07:57;;;;;;;2.80;0.80;;;;;;;4.69;61.31;101907.72;1857570;77;21030;-57
2022/03/29 03:10:26;;;;;;;3.85;1.00;;;;;;;4.70;61.29;101918.58;1857557;77;21112;-57
2022/03/29 03:12:55;;;;;;;7.30;1.00;;;;;;;4.71;61.40;101924.25;1857443;77;21014;-57
2022/03/29 03:15:25;;;;;;;1.82;0.93;;;;;;;4.72;61.40;101913.83;1857578;77;21159;-56
2022/03/29 03:17:55;;;;;;;12.23;1.20;;;;;;;4.73;61.60;101909.47;1857526;77;21112;-58
2022/03/29 03:20:26;;;;;;;5.05;1.20;;;;;;;4.75;61.85;101922.08;1857608;77;21518;-57
2022/03/29 03:22:55;;;;;;;5.05;1.00;;;;;;;4.76;61.95;101902.97;1857552;77;21179;-57
2022/03/29 03:25:23;;;;;;;5.55;1.87;;;;;;;4.81;61.94;101890.78;1858014;77;21137;-57
2022/03/29 03:27:52;;;;;;;5.70;1.22;;;;;;;4.83;62.01;101882.52;1857963;77;21453;-57
2022/03/29 03:30:21;;;;;;;5.10;1.17;;;;;;;4.84;62.01;101879.06;1858047;77;21062;-58
2022/03/29 03:32:50;;;;;;;3.02;1.07;;;;;;;4.91;62.03;101895.62;1857704;77;21061;-57
2022/03/29 03:35:19;;;;;;;2.62;1.00;;;;;;;4.96;61.85;101886.04;1840501;77;21483;-58
2022/03/29 03:37:49;;;;;;;5.35;0.85;;;;;;;4.98;61.85;101882.58;1826947;78;21499;-57
2022/03/29 03:40:18;;;;;;;4.08;0.72;;;;;;;5.06;61.75;101872.59;1827103;78;21041;-58
2022/03/29 03:42:47;;;;;;;13.98;1.40;;;;;;;5.22;61.32;101880.89;1826910;78;21499;-57
2022/03/29 03:45:16;;;;;;;2.20;1.17;;;;;;;5.38;61.02;101881.31;1827081;78;21483;-57
2022/03/29 03:47:46;;;;;;;1.47;0.90;;;;;;;5.54;60.57;101890.05;1827113;78;21460;-58
2022/03/29 03:50:14;;;;;;;2.98;1.12;;;;;;;5.74;60.06;101883.95;1827005;78;21143;-56
2022/03/29 03:52:43;;;;;;;4.28;1.07;;;;;;;5.90;59.81;101872.62;1827022;78;21080;-56
2022/03/29 03:55:12;;;;;;;2.65;0.90;;;;;;;6.09;59.40;101880.45;1826957;78;21119;-57
2022/03/29 03:57:41;;;;;;;8.80;1.40;;;;;;;6.27;59.05;101882.13;1826937;78;21049;-58
2022/03/29 04:00:11;;;;;;;8.78;1.50;;;;;;;6.42;58.60;101889.06;1826978;78;21131;-56
2022/03/29 04:02:42;;;;;;;4.17;1.05;;;;;;;6.59;58.23;101895.56;1826837;78;21139;-58
2022/03/29 04:05:13;;;;;;;4.67;1.02;;;;;;;6.78;57.78;101878.88;1826978;78;21500;-57
2022/03/29 04:07:42;;;;;;;6.70;1.17;;;;;;;6.93;57.68;101867.04;1826953;78;21127;-59
2022/03/29 04:10:11;;;;;;;2.37;1.02;;;;;;;7.17;57.22;101855.95;1826974;78;21119;-58
2022/03/29 04:12:40;;;;;;;4.55;0.98;;;;;;;7.31;56.50;101863.27;1827029;78;21029;-57
2022/03/29 04:15:09;;;;;;;7.58;1.55;;;;;;;7.42;56.37;101863.65;1826847;78;21037;-58
2022/03/29 04:17:38;;;;;;;2.62;0.98;;;;;;;7.61;56.30;101867.84;1827070;78;21025;-57
2022/03/29 04:20:08;;;;;;;3.52;1.00;;;;;;;7.79;55.79;101864.64;1826931;78;21041;-57
2022/03/29 04:22:37;;;;;;;3.45;1.10;;;;;;;7.87;55.05;101873.28;1827058;78;21044;-57
2022/03/29 04:25:06;;;;;;;2.83;0.95;;;;;;;7.99;54.74;101877.11;1826564;78;21114;-57
2022/03/29 04:27:35;;;;;;;3.25;0.85;;;;;;;8.22;54.57;101881.23;1826671;77;21054;-57
2022/03/29 04:30:05;;;;;;;2.47;0.90;;;;;;;8.46;54.29;101859.98;1826676;77;21208;-58
2022/03/29 04:32:36;;;;;;;2.25;1.00;;;;;;;8.60;53.51;101891.77;1826745;78;21062;-57
2022/03/29 04:35:06;;;;;;;3.87;0.98;;;;;;;8.74;52.50;101870.13;1836577;78;21124;-57
2022/03/29 04:37:35;;;;;;;1.57;0.95;;;;;;;8.73;52.12;101867.55;1847722;78;21031;-56
2022/03/29 04:40:08;;;;;;;0.82;0.75;;;;;;;8.83;52.53;101856.87;1847576;78;21199;-57
2022/03/29 04:42:34;;;;;;;2.75;0.95;;;;;;;9.03;52.14;101874.12;1847345;78;21090;-57
2022/03/29 04:45:04;;;;;;;2.95;1.30;;;;;;;9.13;51.74;101870.48;1847632;78;21051;-56
2022/03/29 04:47:33;;;;;;;6.10;1.10;;;;;;;9.32;51.69;101882.88;1847728;78;21055;-56
2022/03/29 04:50:01;;;;;;;2.87;1.20;;;;;;;9.50;50.83;101873.84;1847794;78;21030;-57
2022/03/29 04:52:30;;;;;;;4.15;1.10;;;;;;;9.73;50.78;101872.58;1847827;78;21140;-58
2022/03/29 04:55:00;;;;;;;7.42;1.20;;;;;;;9.96;50.03;101867.78;1847100;78;21107;-58
2022/03/29 04:57:29;;;;;;;5.72;0.93;;;;;;;10.16;49.31;101872.67;1847724;78;21575;-57
2022/03/29 04:59:58;;;;;;;4.33;0.82;;;;;;;10.29;48.38;101864.52;1847754;78;21066;-57
2022/03/29 05:02:27;;;;;;;5.80;1.20;;;;;;;10.45;47.30;101856.77;1847692;78;21544;-57
2022/03/29 05:04:55;;;;;;;5.62;1.20;;;;;;;10.56;45.85;101860.03;1847744;78;21127;-58
2022/03/29 05:07:24;;;;;;;2.62;0.88;;;;;;;10.59;45.14;101842.00;1847727;77;21137;-57
2022/03/29 05:09:53;;;;;;;1.02;0.60;;;;;;;10.69;44.61;101843.98;1847691;78;21117;-57
2022/03/29 05:12:21;;;;;;;2.58;1.10;;;;;;;10.87;44.43;101841.39;1847796;78;21132;-57
2022/03/29 05:14:50;;;;;;;3.62;1.02;;;;;;;11.13;43.77;101846.91;1847675;78;21026;-57
2022/03/29 05:17:19;;;;;;;9.10;1.65;;;;;;;11.42;43.91;101845.35;1847694;78;21039;-57
2022/03/29 05:19:48;;;;;;;8.55;1.12;;;;;;;11.67;42.11;101851.31;1847761;78;21112;-58
2022/03/29 05:22:17;;;;;;;2.87;1.07;;;;;;;11.57;41.47;101840.14;1847757;78;21183;-57
2022/03/29 05:24:45;;;;;;;4.78;1.32;;;;;;;11.66;41.94;101859.69;1849365;77;21090;-57
2022/03/29 05:27:14;;;;;;;8.65;3.25;;;;;;;11.59;40.55;101836.55;1851049;77;21098;-57
2022/03/29 05:29:42;;;;;;;4.10;1.02;;;;;;;11.61;40.72;101836.97;1850915;77;21050;-57
2022/03/29 05:32:11;;;;;;;4.30;1.47;;;;;;;11.76;41.07;101847.11;1850900;77;21059;-57
2022/03/29 05:34:40;;;;;;;5.47;0.93;;;;;;;11.81;40.13;101845.69;1844688;77;21055;-58
2022/03/29 05:37:09;;;;;;;4.72;1.10;;;;;;;11.94;40.17;101847.12;1829918;78;21523;-57
2022/03/29 05:39:38;;;;;;;2.83;1.17;;;;;;;12.23;40.37;101845.00;1829842;78;21068;-57
2022/03/29 05:42:08;;;;;;;3.80;1.35;;;;;;;12.60;40.28;101845.25;1829844;78;21534;-57
2022/03/29 05:44:37;;;;;;;1.32;0.62;;;;;;;12.69;38.25;101844.97;1829786;78;21031;-58
2022/03/29 05:49:55;;;;;;;1.90;0.80;;;;;;;12.79;38.63;101847.33;1829775;78;21087;-56
2022/03/29 05:52:24;;;;;;;3.27;1.42;;;;;;;13.00;36.82;101844.00;1829806;78;21515;-56
2022/03/29 05:54:52;;;;;;;3.52;1.12;;;;;;;13.10;35.75;101838.84;1829818;78;21056;-57
2022/03/29 05:57:21;;;;;;;3.55;1.07;;;;;;;13.04;35.02;101841.69;1829950;78;21065;-57
2022/03/29 05:59:50;;;;;;;5.35;1.20;;;;;;;13.11;35.62;101826.05;1829786;78;21534;-57
2022/03/29 06:02:19;;;;;;;2.67;1.12;;;;;;;13.31;34.49;101812.64;1829801;78;21556;-56
2022/03/29 06:04:48;;;;;;;5.15;1.50;;;;;;;13.42;33.96;101834.30;1829873;78;21016;-57
2022/03/29 06:07:17;;;;;;;6.72;1.57;;;;;;;13.61;34.46;101829.70;1829781;78;21565;-57
2022/03/29 06:09:46;;;;;;;2.15;0.90;;;;;;;14.01;34.65;101830.49;1829656;78;21498;-56
2022/03/29 06:12:16;;;;;;;4.08;1.37;;;;;;;14.31;34.58;101826.31;1829780;78;21110;-57
2022/03/29 06:14:45;;;;;;;3.72;1.20;;;;;;;14.64;34.63;101830.85;1829444;78;21189;-57
2022/03/29 06:17:13;;;;;;;4.55;1.25;;;;;;;14.67;32.48;101828.06;1829823;78;21518;-57
2022/03/29 06:19:43;;;;;;;2.10;1.00;;;;;;;14.51;33.10;101818.94;1829859;78;21052;-57
2022/03/29 06:22:12;;;;;;;11.63;1.45;;;;;;;14.67;32.56;101824.08;1829734;78;21044;-57
2022/03/29 06:24:41;;;;;;;5.08;1.00;;;;;;;14.80;32.13;101820.96;1829092;77;21522;-57
2022/03/29 06:27:10;;;;;;;4.03;1.00;;;;;;;14.82;32.23;101808.50;1827154;78;21074;-57
2022/03/29 06:29:39;;;;;;;6.25;0.90;;;;;;;15.48;32.79;101807.59;1809616;79;21578;-58
2022/03/29 06:32:08;;;;;;;8.85;1.30;;;;;;;15.98;31.68;101800.56;1809763;79;21595;-57
2022/03/29 06:34:37;;;;;;;8.38;1.25;;;;;;;15.81;30.26;101806.63;1803922;79;21058;-58
2022/03/29 06:37:08;;;;;;;4.85;0.95;;;;;;;15.50;30.26;101801.28;1817910;79;21125;-57
2022/03/29 06:39:36;;;;;;;5.45;0.88;;;;;;;15.59;30.19;101807.52;1789138;80;21118;-57
2022/03/29 06:42:05;;;;;;;2.33;0.70;;;;;;;15.64;29.77;101780.78;1820486;79;21629;-57
2022/03/29 06:44:34;;;;;;;2.70;1.00;;;;;;;15.87;29.57;101778.93;1817929;79;21075;-57
2022/03/29 06:47:03;;;;;;;3.77;1.05;;;;;;;16.02;28.68;101779.56;1818029;78;21160;-57
2022/03/29 06:49:32;;;;;;;5.78;1.17;;;;;;;16.45;28.24;101778.03;1817889;79;21154;-57
2022/03/29 06:52:01;;;;;;;10.70;1.57;;;;;;;16.76;26.84;101793.39;1818125;79;21072;-57
2022/03/29 06:54:30;;;;;;;5.60;1.02;;;;;;;16.64;25.71;101793.52;1817934;79;21177;-57
2022/03/29 06:56:59;;;;;;;2.83;1.25;;;;;;;16.52;26.04;101782.98;1820347;79;21058;-57
2022/03/29 06:59:28;;;;;;;3.35;1.02;;;;;;;16.48;26.34;101780.08;1820221;79;21058;-57
2022/03/29 07:01:56;;;;;;;6.15;0.90;;;;;;;16.56;26.11;101773.06;1817833;79;21098;-56
2022/03/29 07:04:25;;;;;;;2.83;0.90;;;;;;;16.77;25.86;101746.77;1820231;79;21102;-57
2022/03/29 07:06:54;;;;;;;3.42;0.88;;;;;;;16.71;25.25;101760.83;1818138;79;21095;-58
2022/03/29 07:12:09;;;;;;;1.82;0.98;;;;;;;16.80;23.70;101756.39;1817967;78;21127;-58
2022/03/29 07:14:38;;;;;;;3.52;1.02;;;;;;;17.10;23.89;101762.52;1817931;79;21189;-57
2022/03/29 07:17:11;;;;;;;9.95;1.10;;;;;;;17.31;23.86;101746.77;1820301;79;21090;-58
2022/03/29 07:19:37;;;;;;;1.62;0.70;;;;;;;17.72;23.12;101743.77;1819951;79;21075;-57
2022/03/29 07:22:05;;;;;;;3.83;0.93;;;;;;;18.17;22.55;101745.83;1817997;79;21098;-57
2022/03/29 07:24:34;;;;;;;5.10;0.80;;;;;;;18.51;22.49;101748.81;1820145;79;21148;-58
2022/03/29 07:27:03;;;;;;;4.30;1.20;;;;;;;18.52;22.05;101750.55;1846730;77;21202;-58
2022/03/29 07:29:33;;;;;;;2.95;1.00;;;;;;;18.39;21.81;101741.05;1850858;77;21137;-58
2022/03/29 07:32:02;;;;;;;7.15;1.00;;;;;;;18.47;21.55;101732.13;1827849;78;21129;-58
2022/03/29 07:34:35;;;;;;;5.80;1.15;;;;;;;18.65;21.34;101725.37;1827418;78;21032;-57
2022/03/29 07:37:05;;;;;;;5.50;1.20;;;;;;;18.73;21.32;101727.12;1826545;78;21092;-58
2022/03/29 07:39:34;;;;;;;4.78;1.27;;;;;;;18.90;20.92;101723.04;1826418;78;21490;-56
2022/03/29 07:42:03;;;;;;;6.83;1.30;;;;;;;19.17;19.85;101716.16;1826793;78;21522;-57
2022/03/29 07:44:31;;;;;;;3.85;1.07;;;;;;;19.45;20.49;101716.67;1826663;78;21561;-58
2022/03/29 07:47:00;;;;;;;5.53;1.47;;;;;;;19.65;20.00;101719.46;1826657;78;21112;-57
2022/03/29 07:49:29;;;;;;;3.42;0.90;;;;;;;19.85;19.80;101707.56;1826655;78;21091;-58
2022/03/29 07:51:58;;;;;;;8.40;1.12;;;;;;;20.06;19.34;101706.19;1844742;74;21129;-57
2022/03/29 07:54:27;;;;;;;1.67;1.05;;;;;;;19.92;18.75;101708.91;1851166;77;21555;-58
2022/03/29 07:56:56;;;;;;;2.95;0.93;;;;;;;19.71;18.49;101686.16;1833226;78;21111;-56
2022/03/29 07:59:25;;;;;;;3.62;1.40;;;;;;;19.46;18.28;101694.37;1857106;77;21029;-61
2022/03/29 08:01:54;;;;;;;5.47;1.55;;;;;;;19.25;18.08;101702.70;1856959;77;21148;-62
2022/03/29 08:04:24;;;;;;;6.85;1.10;;;;;;;19.59;18.81;101699.33;1857012;77;21161;-61
2022/03/29 08:06:53;;;;;;;5.87;1.27;;;;;;;19.98;18.41;101690.28;1856920;77;21446;-59
2022/03/29 08:09:21;;;;;;;4.78;1.10;;;;;;;20.19;18.38;101685.36;1855120;77;21034;-60
2022/03/29 08:11:50;;;;;;;2.60;0.72;;;;;;;20.21;18.21;101692.34;1817670;79;21103;-60
2022/03/29 08:14:20;;;;;;;2.62;0.80;;;;;;;20.35;17.69;101691.42;1849814;77;21071;-61
2022/03/29 08:16:48;;;;;;;6.35;1.10;;;;;;;20.39;17.71;101686.73;1817685;79;21098;-60
2022/03/29 08:19:17;;;;;;;6.53;1.20;;;;;;;20.34;17.63;101688.36;1849928;77;21137;-61
2022/03/29 08:21:52;;;;;;;4.85;1.10;;;;;;;20.52;17.38;101685.45;1817813;79;21126;-59
2022/03/29 08:24:23;;;;;;;3.98;0.75;;;;;;;20.08;17.02;101678.51;1849804;77;21035;-61
2022/03/29 08:26:55;;;;;;;2.58;0.90;;;;;;;20.39;16.79;101672.03;1817644;79;21087;-62
2022/03/29 08:29:23;;;;;;;2.60;0.80;;;;;;;20.21;17.03;101670.06;1849845;77;21051;-62
2022/03/29 08:31:53;;;;;;;3.02;0.82;;;;;;;20.53;17.37;101674.66;1817714;78;21074;-61
2022/03/29 08:34:21;;;;;;;3.80;0.82;;;;;;;20.92;16.65;101672.97;1849833;77;21481;-61
2022/03/29 08:36:52;;;;;;;2.70;0.93;;;;;;;20.75;16.60;101681.26;1817740;79;21172;-62
2022/03/29 08:39:20;;;;;;;1.15;0.55;;;;;;;20.50;16.28;101672.17;1850095;77;21051;-62
2022/03/29 08:42:10;;;;;;;1.92;0.75;;;;;;;20.49;16.71;101671.81;1817907;79;21059;-60
2022/03/29 08:44:41;;;;;;;1.20;0.80;;;;;;;20.43;16.44;101666.36;1849778;77;21142;-60
2022/03/29 08:47:11;;;;;;;2.58;0.95;;;;;;;20.23;15.89;101664.14;1819084;78;21161;-60
2022/03/29 08:49:41;;;;;;;2.12;1.00;;;;;;;20.08;15.77;101653.96;1831697;78;21529;-61
2022/03/29 08:52:11;;;;;;;8.38;0.98;;;;;;;19.87;16.09;101668.23;1831500;78;21079;-59
2022/03/29 08:54:40;;;;;;;5.83;1.00;;;;;;;19.67;15.81;101655.61;1831581;78;21094;-59
2022/03/29 08:57:10;;;;;;;4.30;0.90;;;;;;;19.43;15.72;101694.55;1831555;78;21564;-61
2022/03/29 08:59:41;;;;;;;6.37;0.75;;;;;;;19.31;15.61;101647.22;1831535;78;21071;-62
2022/03/29 09:02:12;;;;;;;4.53;0.80;;;;;;;19.51;16.06;101653.52;1831531;78;21048;-61
2022/03/29 09:04:41;;;;;;;2.15;0.70;;;;;;;20.09;15.28;101648.16;1838494;78;21458;-60
2022/03/29 09:07:10;;;;;;;2.17;0.78;;;;;;;20.12;14.90;101654.63;1839122;78;21056;-61
2022/03/29 09:09:41;;;;;;;2.77;0.60;;;;;;;19.85;14.77;101626.05;1839765;78;21559;-60
2022/03/29 09:12:17;;;;;;;2.42;0.70;;;;;;;20.14;14.96;101621.95;1838870;78;21047;-60
2022/03/29 09:14:57;;;;;;;4.37;1.25;;;;;;;20.16;14.88;101591.96;1811173;79;21142;-60
2022/03/29 09:17:31;;;;;;;1.82;0.62;;;;;;;20.20;14.91;101612.22;1826281;78;21497;-60
2022/03/29 09:20:21;;;;;;;8.38;1.32;;;;;;;20.12;14.63;101621.20;1826008;77;21050;-63
2022/03/29 09:22:55;;;;;;;1.57;0.78;;;;;;;20.39;14.63;101603.82;1827644;77;21504;-62
2022/03/29 09:25:38;;;;;;;1.30;0.70;;;;;;;19.77;15.00;101585.59;1825973;78;21116;-61
2022/03/29 09:28:12;;;;;;;1.50;0.60;;;;;;;19.45;15.07;101603.16;1826175;78;21067;-59
2022/03/29 09:30:46;;;;;;;2.92;0.70;;;;;;;19.73;15.46;101595.62;1825979;78;21087;-60
2022/03/29 09:33:17;;;;;;;1.32;0.75;;;;;;;20.02;15.21;101603.09;1826066;78;21134;-60
2022/03/29 09:35:58;;;;;;;6.65;0.90;;;;;;;20.11;15.08;101598.12;1826176;78;21125;-60
2022/03/29 09:38:36;;;;;;;7.87;0.80;;;;;;;20.04;15.31;101594.48;1833085;77;21117;-60
2022/03/29 09:41:07;;;;;;;3.35;0.78;;;;;;;19.52;15.19;101577.78;1855220;77;21477;-60
2022/03/29 09:44:09;;;;;;;1.55;0.90;;;;;;;19.02;15.21;101585.81;1855131;77;21070;-59
2022/03/29 09:46:59;;;;;;;1.32;0.70;;;;;;;18.13;15.88;101606.58;1855224;77;21152;-59
2022/03/29 09:49:28;;;;;;;3.27;0.90;;;;;;;17.70;16.26;101609.78;1833550;77;21460;-59
2022/03/29 09:52:15;;;;;;;2.52;0.95;;;;;;;17.34;17.04;101595.37;1819739;79;21570;-58
2022/03/29 09:54:45;;;;;;;4.78;1.22;;;;;;;16.86;17.45;101597.88;1819764;79;21090;-59
2022/03/29 09:57:14;;;;;;;2.02;0.88;;;;;;;16.56;17.82;101586.96;1820347;77;21144;-60
2022/03/29 09:59:51;;;;;;;1.77;0.90;;;;;;;16.51;18.40;101575.25;1850288;76;21057;-61
2022/03/29 10:02:19;;;;;;;2.70;0.80;;;;;;;17.12;18.51;101571.70;1861184;77;21022;-60
2022/03/29 10:04:49;;;;;;;1.75;0.72;;;;;;;17.56;17.39;101541.80;1860969;77;21175;-62
2022/03/29 10:07:18;;;;;;;1.17;0.50;;;;;;;17.86;17.72;101521.07;1861209;77;21619;-60
2022/03/29 10:09:46;;;;;;;4.30;1.07;;;;;;;18.16;17.12;101514.91;1861221;77;21079;-59
2022/03/29 10:12:19;;;;;;;1.42;0.93;;;;;;;18.41;17.34;101544.50;1852583;77;21046;-60
2022/03/29 10:14:47;;;;;;;10.70;1.30;;;;;;;18.96;16.84;101532.80;1819502;79;21235;-59
2022/03/29 10:17:18;;;;;;;2.77;0.90;;;;;;;19.09;16.94;101492.41;1829854;77;21040;-63
2022/03/29 10:19:48;;;;;;;4.03;1.20;;;;;;;19.26;17.11;101518.88;1856586;77;21028;-60
2022/03/29 10:22:17;;;;;;;5.30;1.00;;;;;;;19.19;16.87;101522.88;1856633;76;21509;-61
2022/03/29 10:24:46;;;;;;;5.80;1.32;;;;;;;19.22;16.68;101512.02;1856613;76;21145;-60
2022/03/29 10:27:17;;;;;;;9.43;1.77;;;;;;;19.30;16.47;101532.89;1856469;77;21315;-59
2022/03/29 10:29:46;;;;;;;6.70;0.85;;;;;;;18.93;16.48;101509.84;1855089;77;21027;-59
2022/03/29 10:32:17;;;;;;;1.92;1.30;;;;;;;18.84;16.52;101515.26;1855212;77;21140;-60
2022/03/29 10:34:49;;;;;;;1.67;0.82;;;;;;;18.66;16.07;101488.34;1851663;77;21062;-59
2022/03/29 10:37:21;;;;;;;15.08;1.98;;;;;;;18.74;16.53;101490.09;1851314;76;21056;-60
2022/03/29 10:39:59;;;;;;;3.85;0.62;;;;;;;18.60;16.36;101468.73;1854932;77;21164;-61
2022/03/29 10:42:42;;;;;;;4.12;1.30;;;;;;;18.63;16.69;101453.39;1855127;77;21124;-60
2022/03/29 10:45:24;;;;;;;1.77;1.00;;;;;;;18.44;16.67;101471.01;1855334;77;21042;-60
2022/03/29 10:48:02;;;;;;;6.87;1.05;;;;;;;18.32;17.14;101481.92;1855112;77;21040;-61
2022/03/29 10:50:54;;;;;;;3.95;0.90;;;;;;;18.13;17.46;101471.50;1856331;76;21047;-60
2022/03/29 10:53:37;;;;;;;6.45;1.25;;;;;;;17.90;17.52;101461.33;1852311;76;21087;-60
2022/03/29 10:56:19;;;;;;;2.75;1.00;;;;;;;17.49;18.06;101460.55;1856431;77;21194;-63
2022/03/29 10:59:06;;;;;;;7.35;1.22;;;;;;;17.17;18.22;101453.87;1855170;77;21070;-60
2022/03/29 11:01:37;;;;;;;2.83;1.05;;;;;;;16.80;17.99;101475.80;1848637;77;21023;-60
2022/03/29 11:04:19;;;;;;;6.05;1.17;;;;;;;15.96;18.33;101453.15;1872145;76;21023;-60
2022/03/29 11:07:13;;;;;;;2.72;1.00;;;;;;;15.53;18.92;101436.63;1888389;76;21137;-60
2022/03/29 11:09:44;;;;;;;2.07;0.77;;;;;;;15.28;18.97;101456.40;1826342;78;21134;-60
2022/03/29 11:12:38;;;;;;;3.60;1.00;;;;;;;15.11;19.38;101435.12;1794388;80;21301;-59
2022/03/29 11:15:32;;;;;;;3.35;0.75;;;;;;;15.10;19.78;101441.34;1823645;78;21082;-60
2022/03/29 11:17:59;;;;;;;3.37;1.17;;;;;;;15.18;19.77;101456.42;1823904;78;21101;-60
2022/03/29 11:20:33;;;;;;;2.95;0.93;;;;;;;15.33;19.71;101441.13;1839088;77;21145;-60
2022/03/29 11:23:10;;;;;;;2.27;0.90;;;;;;;15.38;19.05;101440.89;1849730;77;21090;-60
2022/03/29 11:25:45;;;;;;;1.47;0.60;;;;;;;15.44;19.11;101448.10;1849778;77;21623;-60
2022/03/29 11:28:16;;;;;;;6.87;1.27;;;;;;;15.36;19.57;101437.45;1849661;77;21011;-58
2022/03/29 11:30:46;;;;;;;2.33;0.88;;;;;;;15.38;19.73;101463.00;1849819;77;21102;-59
2022/03/29 11:33:17;;;;;;;1.87;1.12;;;;;;;15.32;19.45;101473.89;1849785;77;21182;-59
2022/03/29 11:35:48;;;;;;;2.60;1.22;;;;;;;15.26;19.74;101448.98;1849831;77;21051;-59
2022/03/29 11:38:18;;;;;;;1.67;0.90;;;;;;;15.40;19.85;101440.34;1849270;77;21083;-59
2022/03/29 11:40:47;;;;;;;3.10;1.00;;;;;;;15.34;19.82;101430.89;1851204;77;21431;-58
2022/03/29 11:43:19;;;;;;;2.47;0.80;;;;;;;15.17;19.85;101427.72;1856700;77;21048;-58
2022/03/29 11:45:48;;;;;;;3.20;1.00;;;;;;;15.19;20.04;101430.30;1856408;77;21083;-58
2022/03/29 11:48:24;;;;;;;2.55;1.10;;;;;;;15.08;19.99;101420.20;1855129;77;21035;-60
2022/03/29 11:51:01;;;;;;;4.10;1.32;;;;;;;15.01;20.28;101419.64;1855373;77;21089;-60
2022/03/29 11:53:35;;;;;;;4.58;1.30;;;;;;;14.90;20.31;101412.63;1855099;77;21075;-59
2022/03/29 11:56:15;;;;;;;2.92;1.00;;;;;;;15.00;20.61;101413.08;1854594;77;21506;-59
2022/03/29 11:58:52;;;;;;;1.90;1.00;;;;;;;14.97;20.60;101406.11;1856526;77;21040;-60
2022/03/29 12:01:27;;;;;;;2.33;1.00;;;;;;;14.96;20.61;101413.69;1856722;77;21138;-60